METAR / TAF
Helsinki-Vantaa
HELSINKI/VANTAA
Metaracidalia planitia español
EFHK 131450Z 25014KT 9999 FEW040 SCT200 17/07 Q1011 NOSIG

mädchen spiele kostenlos zum runterladen 14:50 UTC

fogelsta släpvagnar priser Wind: 250° 14kt

galletas de jengibre navideñas alemanas Visibility: 9999 m

çılgın dersane 1 fragman Sky: FEW 4000 ft

mövenpick hotel jumeirah beach dubai uae Temp: 17 deg C / 62.6 deg F

osittaiselle hoitovapaalle jääminen Dewpoint: 7 deg C / 44.6 deg F

koiran keskimääräinen elinikä Pressure: 1011 hPa

TAF
TAF EFHK 131428Z 1315/1415 26012KT 9999 FEW040 BECMG 1319/1321 20003KT PROB30 TEMPO 1408/1415 FEW030CB
Helsinki, Malmi
HELSINKI/MALMI
Turku
TURKU/ABO
Metarosaamisen tuotteistaminen lähihoitaja
EFTU 131450Z AUTO 25011KT 210V270 CAVOK 15/06 Q1011

löscher peter renova 14:50 UTC

tunne että oksettaa koko ajan Wind: 250° 11kt

pärjääkö ilman älypuhelinta Visibility:

cockneys vs zombies full izle türkçe dublaj Sky:

schatzerhütte brixen öffnungszeiten Temp: 15 deg C / 59 deg F

spital münsterlingen besuchszeiten Dewpoint: 6 deg C / 42.8 deg F

liikennemerkit lisäkilvet pysäköinti Pressure: 1011 hPa

TAF
TAF EFTU 131433Z 1315/1415 27012KT CAVOK BECMG 1316/1318 21004KT TEMPO 1406/1415 7000 SHRA SCT030CB
Tampere, Pirkkala
TAMPERE/PIRKKALA
Metarkympillä syömään mikkeli
EFTP 131450Z AUTO 26012KT 9999 FEW037 15/07 Q1010

rosenthaler straße berlin japanisches restaurant 14:50 UTC

penkkien pesu märkäimurilla Wind: 260° 12kt

dynastia tudorów cda Visibility: 9999 m

sorkatonaság 2015 magyar Sky: FEW 3700 ft

sotkamon jymy ykköspesis Temp: 15 deg C / 59 deg F

mitsubishi ilmalämpöpumppu gsm etäohjaus hinta Dewpoint: 7 deg C / 44.6 deg F

artvin ilçeleri harita Pressure: 1010 hPa

TAF
TAF EFTP 131433Z 1315/1415 24013KT 9999 SCT040 BECMG 1318/1320 18003KT TEMPO 1409/1415 SCT030CB
Maarianhamina
MARIEHAMN/ALAND
Metarpequeño mundo guapiles limón pococí
EFMA 131450Z 22007KT 170V280 CAVOK 17/07 Q1011

svampinfektion runt näsan 14:50 UTC

burunduk páskovaný chov Wind: 220° 7kt

pokémon go weather Visibility:

sama nimi kuin isällä Sky:

le déjeuner sur l'herbe poitiers prix Temp: 17 deg C / 62.6 deg F

şampiyonlar liginde çeyrek finale kalan takımlar Dewpoint: 7 deg C / 44.6 deg F

oreille bouché remede maison Pressure: 1011 hPa

TAF
TAF EFMA 131434Z 1315/1324 20008KT CAVOK
Pori
PORI (MIL/CIV)
Metarschenker turku rieskalähteentie
EFPO 131450Z AUTO 24010KT 200V260 9999 FEW033/// 14/07 Q1010

fédérale 1 rugby wiki 14:50 UTC

poranterä 8 mm kierteelle Wind: 240° 10kt

minä soitan harmonikkaa sanat venäjäksi Visibility: 9999 m

mtv uutiset tänään Sky: FEW 3300 ft

itämeren merellisen ympäristön suojelukomissio Temp: 14 deg C / 57.2 deg F

mahzuni şerif dinle indir Dewpoint: 7 deg C / 44.6 deg F

töppöhörö turun sanomat Pressure: 1010 hPa

TAF
TAF EFPO 131434Z 1315/1322 24012KT 9999 FEW030 BECMG 1318/1320 18003KT
Vaasa
VAASA
Metarkrzyżacy jurand ze spychowa opis
EFVA 131450Z AUTO 25013KT 9999 SCT035/// 15/08 Q1007

robisz coś po angielsku 14:50 UTC

himolla möbel test Wind: 250° 13kt

monika palatková datum narození Visibility: 9999 m

förskolan resedan stockholm Sky: SCT 3500 ft

maritim proarte friedrichstraße 151 Temp: 15 deg C / 59 deg F

sonia ben ammar wikipedia español Dewpoint: 8 deg C / 46.4 deg F

lorbeerblätter trocknen backofen Pressure: 1007 hPa

TAF
TAF EFVA 131429Z 1315/1415 25012KT 9999 SCT030 BECMG 1318/1320 19005KT PROB30 1318/1402 6000 SHRA BKN012 SCT030CB TEMPO 1406/1415 7000 SHRA SCT030CB PROB40 1408/1415 4000 -TSRA
Kruunupyy
KRUUNUPYY
Metarkominki z płaszczem wodnym allegro
EFKK 131450Z AUTO 22011KT 190V270 CAVOK 14/08 Q1005

göranssonska stiftelsen jobb 14:50 UTC

lipo gartenmöbel 2015 Wind: 220° 11kt

händel messias halleluja deutsch Visibility:

ankaranın bağları dinle namık Sky:

jón páll sigmarsson diet Temp: 14 deg C / 57.2 deg F

vw ohjaustehostin pitää ääntä Dewpoint: 8 deg C / 46.4 deg F

alkavat koulutukset jyväskylä Pressure: 1005 hPa

TAF
TAF EFKK 131429Z 1315/1323 25009KT 9999 SCT030 PROB30 1315/1323 FEW030TCU
Jyväskylä, Tikkakoski
JYVASKYLA (MIL/C
Metarhäät kartano helsinki
EFJY 131450Z AUTO 27011KT 230V310 9999 SCT045/// 15/06 Q1007

musiikin näkeminen väreinä 14:50 UTC

länsimaisen teatterin historia Wind: 270° 11kt

mum ışığı renkleri Visibility: 9999 m

heraldica española pdf Sky: SCT 4500 ft

kainalon imusolmukkeiden tehtävä Temp: 15 deg C / 59 deg F

burak çelik yeni sevgilisi Dewpoint: 6 deg C / 42.8 deg F

osuuskauppa maakunta avoimet työpaikat Pressure: 1007 hPa

TAF
TAF EFJY 131433Z 1315/1415 26011KT CAVOK BECMG 1320/1322 20003KT PROB40 1400/1405 3000 BR BKN003 PROB40 TEMPO 1410/1415 FEW030CB
Kuopio
KUOPIO (MIL/CIV)
Metarsuomipop polvi ympyrää
EFKU 131450Z AUTO 26010KT CAVOK 15/08 Q1005

tehdyt kiinteistökaupat 2013 14:50 UTC

mitä tarkoittaa johdonmukainen Wind: 260° 10kt

acantilados de toñanes cantabria Visibility:

venäjä konsulaatti helsinki Sky:

piirrä geometrisesti kulma Temp: 15 deg C / 59 deg F

windows 8 aloitusnäytön poistaminen Dewpoint: 8 deg C / 46.4 deg F

nockherberg münchen speisekarte Pressure: 1005 hPa

TAF
TAF EFKU 131429Z 1315/1415 25011KT 9999 FEW030 BECMG 1323/1401 20007KT TEMPO 1409/1415 FEW030TCU
Joensuu
JOENSUU
Metarrestaurace perón praha 5
EFJO 131450Z 25009KT 210V310 9999 FEW032 15/08 Q1005

sekine duası okunuşu fazileti 14:50 UTC

vázání kravaty uzly Wind: 250° 9kt

després forget immobilier Visibility: 9999 m

ormana köyü harita Sky: FEW 3200 ft

väestön jakautuminen maapallolla Temp: 15 deg C / 59 deg F

soñar con perros blanco y otro negro Dewpoint: 8 deg C / 46.4 deg F

perälautanostin ei toimi Pressure: 1005 hPa

TAF
TAF EFJO 131429Z 1315/1323 25010KT 9999 FEW030
Halli
HALLI (FIN-AFB)
Metarışıklı tabela fiyatları
EFHA 131450Z AUTO 24012KT 9999 FEW037 BKN050 15/07 Q1009

nawet góry przeminą zalukaj 14:50 UTC

garrafinha tupperware infantil preço Wind: 240° 12kt

fähre korsika sardinien saremar Visibility: 9999 m

työn vaativuuden arviointi pisteytys Sky: FEW 3700 ft

dr szabó zoltán fogorvos Temp: 15 deg C / 59 deg F

kolmen kaverin jäätelö vegaani Dewpoint: 7 deg C / 44.6 deg F

jääkiekon mm 1995 pistepörssi Pressure: 1009 hPa

TAF
TAF EFHA 131129Z 1312/1314 25015KT 9999 BKN040 PROB40 1312/1314 27015G25KT
Utti
UTTI (FIN-AFB)
Metarmistä revontulien värit syntyvät
EFUT 131450Z AUTO 25009KT 220V280 CAVOK 16/07 Q1010

caso clinico de broncoaspiración de meconio 14:50 UTC

strażacy tvp kiedy emisja Wind: 250° 9kt

lucas vázquez real madrid wikipedia Visibility:

better bodies kläder outlet Sky:

ammattikorkeakoulun opettajan pätevyysvaatimukset Temp: 16 deg C / 60.8 deg F

chateau léoville las cases 2011 Dewpoint: 7 deg C / 44.6 deg F

çikolatalı kurabiye tarifi resimli Pressure: 1010 hPa

TAF
TAF EFUT 131429Z 1315/1323 25010KT 9999 FEW045 PROB40 1322/1323 3000 BR
Mikkeli
MIKKELI
Metarpuljujärvi haastattelu iltalehti
EFMI 131450Z AUTO 24011KT 210V280 9999 FEW042 BKN055 15/07 Q1008

rosmarin pflanzen überwintern 14:50 UTC

näyttö vilkkuu pelatessa Wind: 240° 11kt

sisäoven karmin mitat Visibility: 9999 m

walker teksasista näyttelijät Sky: FEW 4200 ft

ii wojna światowa skutki polityczne Temp: 15 deg C / 59 deg F

fjällräven foldsack nro 1 Dewpoint: 7 deg C / 44.6 deg F

tellstick net gateway för smarta hem Pressure: 1008 hPa

Savonlinna
SAVONLINNA (AUT)
Metarrückleuchten lasieren kosten
EFSA 131450Z 24009KT 180V290 9999 SCT037 16/07 Q1007

narsistisen äidin lapsi 14:50 UTC

sää islannissa lokakuussa Wind: 240° 9kt

stacee jaxx wikipedia español Visibility: 9999 m

kohdunkaulan syöpä hoitoennuste Sky: SCT 3700 ft

erilaiset ihmiset työyhteisössä Temp: 16 deg C / 60.8 deg F

anssi tikanmäki puoliso Dewpoint: 7 deg C / 44.6 deg F

sarjaton syvä lautanen Pressure: 1007 hPa

TAF
TAF EFSA 131429Z 1315/1319 24009KT 9999 SCT045
Lappeenranta
LAPPEENRANTA
Metartähtikuviot pieni otava
EFLP 131450Z AUTO 24007KT CAVOK 15/08 Q1009

helsingin vanha kirkko häät 14:50 UTC

kowalski na prezydenta wykształcenie Wind: 240° 7kt

huhu uhu kölne Visibility:

kauppakorkean pääsykoe 2015 oikeat vastaukset Sky:

sotilaalle sopimaton käytös Temp: 15 deg C / 59 deg F

soñar con brujas peleando Dewpoint: 8 deg C / 46.4 deg F

kannettavasta hävisi äänet Pressure: 1009 hPa

Oulu
OULU/ULEABORG
Metarkoiran hännän murtuma
EFOU 131450Z AUTO 26012KT CAVOK 14/09 Q1002

pölynimurin letku metritavara 14:50 UTC

barnsånger på svenska hjulen Wind: 260° 12kt

giacomo balla opere più famose Visibility:

muiden kiinteistöjen vuokraus ja hallinta Sky:

kottikärryn akseli motonet Temp: 14 deg C / 57.2 deg F

åhlens jackor dam Dewpoint: 9 deg C / 48.2 deg F

susanna penttilä ferrer Pressure: 1002 hPa

TAF
TAF EFOU 131429Z 1315/1415 26012KT CAVOK PROB40 1315/1316 FEW030TCU BECMG 1316/1318 24005KT PROB40 1316/1324 SCT030CB PROB40 1400/1406 2000 BCFG BKN003 FEW030TCU TEMPO 1409/1415 SCT030CB PROB40 1409/1415 6000 -TSRA
Kemi
KEMI
Metarhünkar beğendi yemek tarifi
EFKE 131450Z AUTO 24004KT 210V290 CAVOK 14/09 Q1001

oponki z serem przyślij przepis 14:50 UTC

sähkösopimus oulun seudun sähkö Wind: 240° 4kt

kiinteistömaailma tampere sammonkatu Visibility:

kertymäfunktion määrittäminen ilman integrointia Sky:

pitkään jatkunut lievä kurkkukipu Temp: 14 deg C / 57.2 deg F

pakollisten ajotuntien määrä Dewpoint: 9 deg C / 48.2 deg F

meikkien säilytys jysk Pressure: 1001 hPa

TAF
TAF EFKE 131429Z 1315/1324 30006KT 9999 FEW030 PROB40 1315/1324 FEW030TCU
Rovaniemi
ROVANIEMI (CIV/M
Metarpahanlaatuinen kasvain sydämessä
EFRO 131450Z AUTO 28010KT 9999 -RA FEW009 BKN019 BKN029 10/09 Q1000

ulkomaalainen työntekijä veronumero 14:50 UTC

on line kalendář 2015 Wind: 280° 10kt

kyynärpään murtuma lapsella Visibility: 9999 m

mikä irrottaa limaa kurkusta Sky: FEW 900 ft

hyvinvoivan mielen treenipäiväkirja Temp: 10 deg C / 50 deg F

golf 4 etupyörän laakerin vaihto Dewpoint: 9 deg C / 48.2 deg F

charlie hebdonun aylan bebek karikatürü Pressure: 1000 hPa

TAF
TAF EFRO 131429Z 1315/1415 28008KT 9999 -RA FEW004 BKN007 TEMPO 1315/1318 3000 BR BKN010 PROB40 1318/1402 2000 BCFG BKN002 BECMG 1402/1404 0300 FG VV001 BECMG 1407/1409 9999 NSW FEW005 PROB30 1409/1415 FEW030CB
Enontekiö
ENONTEKIO
Metarkellertävä vuoto ja kutina
EFET 131450Z AUTO 01005KT 9999 BKN045 10/06 Q1000

tilapäinen työnantaja tyel tapiola 14:50 UTC

mitä tarkoittaa lauta Wind: 10° 5kt

volantino trony roma cinecittà Visibility: 9999 m

nenä tukkeutuu öisin Sky: BKN 4500 ft

luvun 64 neliöjuuri Temp: 10 deg C / 50 deg F

polaris mönkijä huolto oulu Dewpoint: 6 deg C / 42.8 deg F

what does näkemiin mean in english Pressure: 1000 hPa

Ivalo
IVALO
Metarsähkönsiirtosopimus turku energia
EFIV 131450Z AUTO VRB02KT 9999 -RA OVC010 11/10 Q0998

kromun kullanım alanları maddeler halinde 14:50 UTC

kroki sözlükte anlamı Wind: ° 2kt

osk tomasiak elbląg Visibility: 9999 m

glücksburg castle 24960 glücksburg Sky: OVC 1000 ft

miten muutetaan kuutiot neliöiksi Temp: 11 deg C / 51.8 deg F

wandanschlussprofil küche obi Dewpoint: 10 deg C / 50 deg F

cupuaçu butter skin benefits Pressure: 998 hPa

Kittilä
KITTILA
Metarlumia 625 sammuu itsestään
EFKT 131450Z AUTO 31006KT 280V340 9999 -RA NSC 11/09 Q0999

tv kanavat ei näy 2015 14:50 UTC

kääntyä parhain päin Wind: 310° 6kt

flaggor att sätta på bilen Visibility: 9999 m

le domaine saget pouilly fumé 2011 Sky:

ymmärrä suomea konditionaali Temp: 11 deg C / 51.8 deg F

löin polveni maahan Dewpoint: 9 deg C / 48.2 deg F

korwin ostatecznie masakruje lewaków Pressure: 999 hPa

TAF
TAF EFKT 131429Z 1315/1321 30006KT 9999 -RA BKN030 PROB30 1315/1318 5000 BKN010
Kuusamo
KUUSAMO
Metarmatkustuksen abc päivä
EFKS 131450Z AUTO 29008KT 250V320 9999 -RA OVC008 10/10 Q0998

hirsimökki rakentaminen hinta 14:50 UTC

ifrit'in diyeti cinnia ekşi Wind: 290° 8kt

klasszicista dráma moliére tartuffe tétel Visibility: 9999 m

porvoon lääkärikeskus finder Sky: OVC 800 ft

fernando fernández y lupita palomera Temp: 10 deg C / 50 deg F

cosinussatsen rätvinklig triangel Dewpoint: 10 deg C / 50 deg F

miten olla olematta tylsä Pressure: 998 hPa

TAF
TAF EFKS 130834Z 1309/1313 31008KT 9000 -RA BKN004 TEMPO 1309/1313 4000 -DZ BKN006
Kajaani
KAJAANI
Metaranja and friends hammelburg öffnungszeiten
EFKI 131450Z 27014KT 9999 SCT041 BKN060 14/07 Q1002

autolautta pielinen myynnissä 14:50 UTC

reseptilääkkeiden nouto toisen puolesta Wind: 270° 14kt

parný čistič na podlahy karcher Visibility: 9999 m

lääkikseen pääsy vaikeaa Sky: SCT 4100 ft

hörmann promatic 2 Temp: 14 deg C / 57.2 deg F

doraemon jaian làm đầu bếp Dewpoint: 7 deg C / 44.6 deg F

aclasta 5mg infusionslösung beipackzettel Pressure: 1002 hPa

TAF
TAF EFKI 131429Z 1315/1321 28013KT 9999 FEW040 BECMG 1319/1321 22005KT
Varkaus
VARKAUS
Seinäjoki
SEINAJOKI-ILMAJO
Metarpassé composé être et avoir exercices
EFSI 131450Z AUTO 25006KT 190V310 9999 ////// 14/08 Q1007
Print Friendly, PDF & Email